Terminal Aerodrome Forecast
Issued by NWS Upton, NY

Home | Current Version | Previous Version | Text Only | Print | Product List | Glossary On
Versions: 1 2 3 4 5 6 7 8 9 10 11 12 13 14 15 16 17 18 19 20 21 22 23 24 25 26 27
000
FTUS41 KOKX 032033 AAA
TAFISP
TAF AMD
KISP 032033Z 0321/0418 20014G20KT P6SM FEW050 SCT250
     FM040200 21010KT P6SM SCT050 BKN100
      TEMPO 0404/0408 -TSRA BKN050CB
     FM041500 22011G16KT P6SM SCT050 SCT100=

USA.gov is the U.S. government's official web portal to all federal, state and local government web resources and services.